Главная страница
METAR-TAF:

METAR-TAF

Аэропорты :

Sveg, Швеция

широта: 62-02-52N, долгота: 014-25-22E, высота над уровнем моря: 359 м

Текущие метеонаблюдения

Эта сводка был подготовлена 38 минут назад, в 10:20 UTC
Ветер 5 Узел от северный
Температура 0°C
Влажность 59%
Давление 1015 hPa
Видимость 10 км и более

METAR: ESND 261020Z AUTO 36005KT 9999 OVC032/// 00/M07 Q1015

Время: 11:58 (10:58 UTC)


TAF: отсутствует

Метеонаблюдения и прогнозы для более 4000 аэропортов (сводки METAR и TAF).

Имеющиеся станции представлены на карте желтыми и красными точками.

Чтобы увидеть название станции, наведите на нее мышь.

Затем щелкните, чтобы увидеть метеонаблюдения и метеопрогнозы.

Управление картой: чтобы увеличить масштаб, щелкните зеленые кнопки с черным крестиком; чтобы уменьшить масштаб, щелкните зеленую кнопку с тире; для просмотра соседних карт щелкайте зеленые стрелки.


METAR-TAF: